createdAt,value
2023-03-03T00:00:45.736Z,1028.020811562298
2023-03-03T00:07:09.392Z,1028.0228489554443
2023-03-03T00:13:30.362Z,1028.0065983415657
2023-03-03T00:27:51.897Z,1027.889912486566
2023-03-03T00:34:13.728Z,1027.959657565571
2023-03-03T00:45:09.489Z,1028.0416916238
2023-03-03T00:51:32.679Z,1028.0243505137132
2023-03-03T00:57:53.981Z,1028.0049345201212
2023-03-03T01:04:15.856Z,1028.024119883587
2023-03-03T01:10:37.016Z,1028.0413953602952
2023-03-03T01:23:23.004Z,1027.9564023487442
2023-03-03T01:29:52.066Z,1027.8851317604062
2023-03-03T01:36:15.053Z,1027.9043716902133
2023-03-03T01:42:36.341Z,1027.8153194299725
2023-03-03T01:53:28.322Z,1027.6907331663306
2023-03-03T01:59:49.919Z,1027.603543245403
2023-03-03T02:08:28.097Z,1027.5286744726966
2023-03-03T02:19:41.746Z,1027.5837452477201
2023-03-03T02:26:03.485Z,1027.6442681888886
2023-03-03T02:32:25.440Z,1027.6124865585302
2023-03-03T02:38:47.220Z,1027.5701981419436
2023-03-03T02:45:08.933Z,1027.5855098145068
2023-03-03T02:55:23.358Z,1027.5446410322106
2023-03-03T03:01:44.570Z,1027.5180434218985
2023-03-03T03:08:06.555Z,1027.4848400280102
2023-03-03T03:16:48.191Z,1027.5112854772244
2023-03-03T03:23:09.921Z,1027.464498920045
2023-03-03T03:29:30.764Z,1027.5067091464712
2023-03-03T03:39:48.064Z,1027.6077048928403
2023-03-03T03:52:06.630Z,1027.6302047862728
2023-03-03T03:58:27.403Z,1027.652034190874
2023-03-03T04:04:48.439Z,1027.7075070084386
2023-03-03T04:11:10.191Z,1027.7461630127557
2023-03-03T04:18:27.481Z,1027.7435484404514
2023-03-03T04:29:17.467Z,1027.6278124697765
2023-03-03T04:35:39.671Z,1027.6234855015105
2023-03-03T04:47:49.100Z,1027.5814307225519
2023-03-03T04:59:58.272Z,1027.5134366736434
2023-03-03T05:06:19.101Z,1027.4376770063109
2023-03-03T05:12:41.159Z,1027.403825747198
2023-03-03T05:19:03.391Z,1027.3511170099966
2023-03-03T05:25:24.439Z,1027.3654073139207
2023-03-03T05:31:46.100Z,1027.3499423296555
2023-03-03T05:38:08.027Z,1027.3897777665454
2023-03-03T05:46:09.142Z,1027.3889003484182
2023-03-03T05:52:30.975Z,1027.4507486336604
2023-03-03T05:58:54.142Z,1027.5405171043385
2023-03-03T06:09:06.793Z,1027.650959588461
2023-03-03T06:20:49.020Z,1027.7889816753795
2023-03-03T06:35:19.781Z,1027.8737410017036
2023-03-03T06:49:38.505Z,1027.9427506918182
2023-03-03T06:57:29.906Z,1027.9780860359713
2023-03-03T07:10:20.889Z,1028.147661610685
2023-03-03T07:26:27.915Z,1028.264308767079
2023-03-03T07:38:49.524Z,1028.3348187057893
2023-03-03T07:45:15.507Z,1028.3893688878757
2023-03-03T07:51:41.367Z,1028.2631184788365
2023-03-03T08:02:34.596Z,1028.2434045615062
2023-03-03T08:08:58.711Z,1028.2413252181204
2023-03-03T08:17:29.755Z,1028.1184421745468
2023-03-03T08:26:53.196Z,1028.2148791828379
2023-03-03T08:33:18.155Z,1028.214013334582
2023-03-03T08:39:42.507Z,1028.1519235400733
2023-03-03T08:46:07.875Z,1028.201232609687
2023-03-03T08:54:08.151Z,1028.1572794959998
2023-03-03T09:00:33.061Z,1028.1683984584538
2023-03-03T09:15:31.515Z,1028.2485164548814
2023-03-03T09:21:56.583Z,1028.2482780150665
2023-03-03T09:28:22.332Z,1028.2644534268686
2023-03-03T09:34:47.284Z,1028.266024088768
2023-03-03T09:41:12.587Z,1028.2619206222023
2023-03-03T09:47:40.226Z,1028.255808571751
2023-03-03T09:54:05.536Z,1028.2437500307706
2023-03-03T10:00:31.227Z,1028.254435267343
2023-03-03T10:15:01.869Z,1028.2371099865204
2023-03-03T10:21:29.159Z,1028.234922496347
2023-03-03T10:27:55.971Z,1028.259313926058
2023-03-03T10:45:08.374Z,1028.3954015488457
2023-03-03T10:51:32.863Z,1028.3736416842053
2023-03-03T10:57:58.820Z,1028.3775439133983
2023-03-03T11:06:43.106Z,1028.328784516616
2023-03-03T11:20:58.587Z,1028.218255028554
2023-03-03T11:33:25.105Z,1028.090013622777
2023-03-03T11:39:50.691Z,1028.0387529765023
2023-03-03T11:46:16.295Z,1028.0140313826291
2023-03-03T11:52:42.580Z,1027.9542610660149
2023-03-03T11:59:08.149Z,1027.8613869061066
2023-03-03T12:05:33.907Z,1027.8037466340131
2023-03-03T12:13:10.309Z,1027.7286943328745
2023-03-03T12:19:35.947Z,1027.6782239219895
2023-03-03T12:26:01.363Z,1027.6220607384655
2023-03-03T12:36:48.945Z,1027.5505387661742
2023-03-03T12:45:56.059Z,1027.4931577829268
2023-03-03T12:52:22.004Z,1027.4694704142858
2023-03-03T12:58:46.999Z,1027.4420214756183
2023-03-03T13:05:12.373Z,1027.3499291236403
2023-03-03T13:11:37.437Z,1027.2586498857413
2023-03-03T13:21:38.481Z,1027.201107097072
2023-03-03T13:28:04.133Z,1027.1584448828128
2023-03-03T13:34:29.349Z,1027.117317485411
2023-03-03T13:40:54.750Z,1027.1246333023619
2023-03-03T13:47:20.390Z,1027.0947505973613
2023-03-03T13:53:45.642Z,1027.0113088042033
2023-03-03T14:00:11.764Z,1026.9315477621378
2023-03-03T14:06:39.044Z,1026.8514124214876
2023-03-03T14:19:08.588Z,1026.782643200841
2023-03-03T14:25:36.269Z,1026.6992309965633
2023-03-03T14:34:21.433Z,1026.594729405183
2023-03-03T14:40:48.035Z,1026.5818518268886
2023-03-03T14:47:12.918Z,1026.5510586498956
2023-03-03T14:53:38.004Z,1026.5052569186864
2023-03-03T15:00:03.040Z,1026.4516868118656
2023-03-03T15:06:28.092Z,1026.4095150229177
2023-03-03T15:12:53.967Z,1026.359923319731
2023-03-03T15:19:19.595Z,1026.2987936444251
2023-03-03T15:39:36.094Z,1026.1159801383437
2023-03-03T15:49:00.156Z,1026.001552914477
2023-03-03T15:55:26.327Z,1025.9838626588298
2023-03-03T16:01:54.287Z,1025.977666712975
2023-03-03T16:08:22.716Z,1025.927213511781
2023-03-03T16:14:50.801Z,1025.8988698121052
2023-03-03T16:21:18.612Z,1025.871920914246
2023-03-03T16:27:46.072Z,1025.8773328744871
2023-03-03T16:36:18.924Z,1025.900976987122
2023-03-03T16:42:47.154Z,1025.9041789979967
2023-03-03T16:57:53.058Z,1025.999902149706
2023-03-03T17:04:16.334Z,1026.01725399144
2023-03-03T17:10:40.650Z,1025.991488324493
2023-03-03T17:21:57.323Z,1026.005465249372
2023-03-03T17:30:45.293Z,1026.1046876967678
2023-03-03T17:37:55.974Z,1026.165098239977
2023-03-03T17:44:32.989Z,1026.1932818913383
2023-03-03T17:51:15.388Z,1026.1917534513657
2023-03-03T17:58:09.271Z,1026.2561345582376
2023-03-03T18:05:12.609Z,1026.3110554293442
2023-03-03T18:12:57.477Z,1026.3319746175348
2023-03-03T18:19:25.621Z,1026.2949013666905
2023-03-03T18:25:48.261Z,1026.269450499767
2023-03-03T18:39:08.305Z,1026.2358782894257
2023-03-03T18:45:51.208Z,1026.2267780059892
2023-03-03T19:03:25.374Z,1026.1664383099567
2023-03-03T19:19:52.407Z,1026.1263118008465
2023-03-03T19:26:11.272Z,1026.117141735307
2023-03-03T19:37:17.863Z,1026.128531706741
2023-03-03T19:45:48.522Z,1026.165427575611
2023-03-03T19:52:07.681Z,1026.185703856928
2023-03-03T19:58:26.606Z,1026.1912295064733
2023-03-03T20:07:46.483Z,1026.1757572770339
2023-03-03T20:16:23.061Z,1026.1615198810623
2023-03-03T20:23:16.848Z,1026.1886879112365
2023-03-03T20:29:35.634Z,1026.2029971884865
2023-03-03T20:45:50.244Z,1026.2467356653838
2023-03-03T20:57:10.493Z,1026.2808945187173
2023-03-03T21:05:04.503Z,1026.2548214248295
2023-03-03T21:11:22.852Z,1026.2643876974153
2023-03-03T21:17:42.250Z,1026.270346251101
2023-03-03T21:27:50.026Z,1026.2200483004135
2023-03-03T21:34:11.954Z,1026.199609835266
2023-03-03T21:40:37.898Z,1026.1813545865373
2023-03-03T21:57:45.892Z,1026.1075224441365
2023-03-03T22:04:05.591Z,1026.0698383429012
2023-03-03T22:10:24.941Z,1026.0265671553457
2023-03-03T22:18:30.654Z,1025.979717314247
2023-03-03T22:27:58.557Z,1025.9435619637343
2023-03-03T22:34:17.253Z,1025.9444107067168
2023-03-03T22:49:45.634Z,1025.9315087560442
2023-03-03T22:56:26.569Z,1025.9115387599718
2023-03-03T23:02:46.180Z,1025.8499606200469
2023-03-03T23:09:04.916Z,1025.810777674075
2023-03-03T23:15:23.895Z,1025.815694127414
2023-03-03T23:27:00.469Z,1025.8415734705059
2023-03-03T23:33:19.569Z,1025.8057082709338
2023-03-03T23:39:38.612Z,1025.778353964172
2023-03-03T23:45:57.391Z,1025.7278408713325
2023-03-03T23:52:16.377Z,1025.697658912778
2023-03-03T23:58:35.237Z,1025.724348710711
